Time;durP1;ratioP1;P1;durP2;ratioP2;P2;SDS_P1;SDS_P2;PMS_P1;PMS_P2;Temp;Humidity;BMP_temperature;BMP_pressure;BME280_temperature;BME280_humidity;BME280_pressure;Samples;Min_cycle;Max_cycle;Signal;HPM_P1;HPM_P2
2024/01/05 00:01:26;;;;;;;1.25;1.10;;;7.00;1.00;;;;;;5180280;28;20044;-32
2024/01/05 00:04:00;;;;;;;2.05;0.90;;;7.00;1.00;;;;;;5172928;28;20052;-32
2024/01/05 00:06:37;;;;;;;2.08;1.10;;;7.00;1.00;;;;;;5186961;28;20034;-32
2024/01/05 00:09:09;;;;;;;0.80;0.70;;;7.10;1.00;;;;;;5167140;28;20038;-34
2024/01/05 00:11:47;;;;;;;0.70;0.70;;;7.00;1.00;;;;;;5194791;28;20105;-30
2024/01/05 00:14:21;;;;;;;1.30;0.82;;;7.10;1.00;;;;;;5184927;28;20044;-30
2024/01/05 00:16:55;;;;;;;2.28;1.00;;;7.20;1.00;;;;;;5150101;28;20030;-31
2024/01/05 00:19:27;;;;;;;1.50;0.90;;;7.30;1.00;;;;;;5190905;28;20360;-31
2024/01/05 00:22:01;;;;;;;0.82;0.77;;;7.40;1.00;;;;;;5206972;28;20052;-32
2024/01/05 00:24:35;;;;;;;2.42;1.30;;;7.40;1.00;;;;;;5189084;28;20042;-31
2024/01/05 00:27:06;;;;;;;5.63;0.70;;;7.50;1.00;;;;;;5198201;28;20039;-31
2024/01/05 00:29:40;;;;;;;3.38;0.85;;;7.60;1.00;;;;;;5188993;28;20395;-32
2024/01/05 00:32:16;;;;;;;1.30;1.00;;;7.60;1.00;;;;;;5158215;28;20041;-31
2024/01/05 00:34:49;;;;;;;1.48;0.90;;;7.60;1.00;;;;;;5184851;28;20038;-31
2024/01/05 00:37:23;;;;;;;1.15;0.80;;;7.60;1.00;;;;;;5185093;28;20052;-31
2024/01/05 00:39:54;;;;;;;0.73;0.73;;;7.50;1.00;;;;;;5185992;28;20219;-31
2024/01/05 00:42:28;;;;;;;2.40;0.90;;;7.50;1.00;;;;;;5169137;28;20033;-34
2024/01/05 00:44:59;;;;;;;0.90;0.90;;;7.40;1.00;;;;;;5185255;28;20026;-31
2024/01/05 00:47:32;;;;;;;2.92;1.20;;;7.40;1.00;;;;;;5166208;28;20041;-31
2024/01/05 00:50:06;;;;;;;1.67;1.00;;;7.40;1.00;;;;;;5168047;28;20029;-31
2024/01/05 00:52:43;;;;;;;6.30;0.93;;;7.30;1.00;;;;;;5193020;28;20060;-32
2024/01/05 00:55:20;;;;;;;1.38;0.85;;;7.30;1.00;;;;;;5184177;28;20341;-32
2024/01/05 00:57:51;;;;;;;2.90;0.85;;;7.10;1.00;;;;;;5184083;28;20044;-32
2024/01/05 01:00:24;;;;;;;0.98;0.73;;;7.00;1.00;;;;;;5187176;28;20189;-31
2024/01/05 01:03:02;;;;;;;1.48;1.13;;;6.90;1.00;;;;;;5169602;28;20253;-31
2024/01/05 01:05:33;;;;;;;1.38;0.80;;;6.70;1.00;;;;;;5189615;28;20231;-31
2024/01/05 01:08:07;;;;;;;1.50;0.80;;;6.70;1.00;;;;;;5172068;28;20028;-31
2024/01/05 01:10:41;;;;;;;2.08;0.90;;;6.60;1.00;;;;;;5190496;28;20038;-31
2024/01/05 01:13:17;;;;;;;3.83;0.80;;;6.40;1.00;;;;;;5171440;28;20030;-31
2024/01/05 01:15:53;;;;;;;1.98;0.88;;;6.30;1.00;;;;;;5187171;28;20033;-31
2024/01/05 01:18:27;;;;;;;1.70;1.02;;;6.30;1.00;;;;;;5152012;28;20052;-31
2024/01/05 01:20:58;;;;;;;2.22;1.00;;;6.10;1.00;;;;;;5190162;28;20161;-31
2024/01/05 01:23:30;;;;;;;1.35;0.90;;;6.00;1.00;;;;;;5172269;28;20208;-31
2024/01/05 01:26:03;;;;;;;0.90;0.90;;;6.00;1.00;;;;;;5189354;28;20030;-31
2024/01/05 01:28:37;;;;;;;1.02;0.85;;;5.90;1.00;;;;;;5182422;28;20034;-31
2024/01/05 01:31:09;;;;;;;2.85;0.95;;;6.00;1.00;;;;;;5180829;28;20045;-31
2024/01/05 01:33:41;;;;;;;1.63;0.82;;;5.90;1.00;;;;;;5151238;28;20049;-30
2024/01/05 01:36:15;;;;;;;3.38;1.20;;;5.90;1.00;;;;;;5188431;28;20184;-31
2024/01/05 01:38:49;;;;;;;0.75;0.65;;;5.80;1.00;;;;;;5189745;28;20246;-31
2024/01/05 01:41:23;;;;;;;1.95;0.75;;;6.00;1.00;;;;;;5190381;28;20076;-35
2024/01/05 01:43:55;;;;;;;6.55;1.15;;;6.00;1.00;;;;;;5188836;28;20033;-32
2024/01/05 01:46:31;;;;;;;1.15;0.70;;;6.10;1.00;;;;;;5191017;28;20291;-32
2024/01/05 01:49:06;;;;;;;0.90;0.90;;;6.20;7.70;;;;;;5169673;28;20037;-32
2024/01/05 01:51:41;;;;;;;3.00;0.80;;;6.30;1.00;;;;;;5186645;28;21401;-31
2024/01/05 01:54:12;;;;;;;;;;;6.30;1.00;;;;;;5178167;28;20030;-31
2024/01/05 01:56:49;;;;;;;0.80;0.80;;;6.20;1.00;;;;;;5182439;28;20179;-31
2024/01/05 01:59:22;;;;;;;0.70;0.63;;;6.20;1.00;;;;;;5187708;28;20034;-32
2024/01/05 02:01:54;;;;;;;1.75;0.85;;;6.10;1.00;;;;;;5166201;28;20069;-32
2024/01/05 02:04:29;;;;;;;3.08;0.80;;;6.10;1.00;;;;;;5189665;28;20045;-32
2024/01/05 02:07:01;;;;;;;2.13;1.05;;;6.10;1.00;;;;;;5188629;28;20040;-31
2024/01/05 02:09:33;;;;;;;3.88;0.98;;;6.10;1.00;;;;;;5171050;28;20036;-31
2024/01/05 02:12:05;;;;;;;1.20;1.00;;;6.00;1.00;;;;;;5189688;28;20300;-31
2024/01/05 02:14:36;;;;;;;1.33;0.80;;;5.90;1.00;;;;;;5172148;28;20306;-31
2024/01/05 02:17:30;;;;;;;1.95;1.67;;;5.80;1.00;;;;;;5166868;28;20253;-31
2024/01/05 02:20:02;;;;;;;0.88;0.85;;;5.80;1.00;;;;;;5189044;28;20044;-31
2024/01/05 02:22:35;;;;;;;3.65;1.10;;;5.70;4.60;;;;;;5188842;28;20230;-31
2024/01/05 02:25:07;;;;;;;1.05;0.88;;;5.60;1.00;;;;;;5170851;28;20034;-30
2024/01/05 02:27:41;;;;;;;2.50;1.30;;;5.60;45.40;;;;;;5187915;28;20274;-30
2024/01/05 02:30:24;;;;;;;1.67;1.23;;;5.60;34.30;;;;;;5167858;28;20053;-30
2024/01/05 02:32:55;;;;;;;1.02;0.93;;;5.50;42.40;;;;;;5169763;28;20046;-31
2024/01/05 02:35:28;;;;;;;1.33;0.90;;;5.40;25.60;;;;;;5189302;28;20044;-31
2024/01/05 02:37:59;;;;;;;1.25;0.90;;;5.30;60.00;;;;;;5189065;28;20342;-31
2024/01/05 02:40:30;;;;;;;0.82;0.80;;;5.30;47.60;;;;;;5189015;28;20053;-33
2024/01/05 02:43:04;;;;;;;2.30;1.27;;;5.20;99.90;;;;;;5188649;28;20036;-31
2024/01/05 02:45:35;;;;;;;2.50;1.05;;;5.00;99.90;;;;;;5186388;28;20036;-31
2024/01/05 02:48:09;;;;;;;0.93;0.80;;;5.00;99.90;;;;;;5170167;28;20040;-31
2024/01/05 02:50:40;;;;;;;0.98;0.70;;;4.90;99.90;;;;;;5185143;28;20033;-31
2024/01/05 02:53:14;;;;;;;0.95;0.75;;;4.70;99.90;;;;;;5185881;28;20037;-31
2024/01/05 02:55:46;;;;;;;3.78;1.50;;;4.60;1.00;;;;;;5187962;28;20036;-31
2024/01/05 02:58:19;;;;;;;1.50;1.30;;;4.60;1.00;;;;;;5186517;28;20199;-30
2024/01/05 03:00:50;;;;;;;3.70;0.93;;;4.60;1.00;;;;;;5184114;28;20330;-30
2024/01/05 03:03:22;;;;;;;1.00;0.95;;;4.60;1.00;;;;;;5153432;28;20353;-31
2024/01/05 03:05:53;;;;;;;1.85;0.82;;;4.60;1.00;;;;;;5187308;28;20037;-31
2024/01/05 03:08:24;;;;;;;1.85;0.90;;;4.40;1.00;;;;;;5176345;28;20412;-31
2024/01/05 03:10:59;;;;;;;2.13;0.90;;;4.40;1.00;;;;;;5185992;28;20345;-31
2024/01/05 03:13:37;;;;;;;;;;;4.30;1.00;;;;;;5188322;28;20044;-33
2024/01/05 03:16:11;;;;;;;1.70;0.90;;;4.20;99.90;;;;;;5182571;28;19908;-30
2024/01/05 03:18:44;;;;;;;1.60;1.35;;;4.10;99.90;;;;;;5149669;28;20042;-31
2024/01/05 03:21:15;;;;;;;1.08;0.70;;;4.00;99.90;;;;;;5187341;28;20256;-30
2024/01/05 03:23:52;;;;;;;0.73;0.73;;;3.90;99.90;;;;;;5187532;28;20108;-31
2024/01/05 03:26:26;;;;;;;3.80;1.70;;;3.90;1.00;;;;;;5169494;28;20034;-31
2024/01/05 03:28:57;;;;;;;3.50;1.42;;;3.90;1.00;;;;;;5187674;28;20060;-31
2024/01/05 03:31:28;;;;;;;5.50;0.90;;;4.00;1.00;;;;;;5182999;28;20044;-31
2024/01/05 03:34:02;;;;;;;1.20;1.20;;;4.00;1.00;;;;;;5186728;28;20042;-31
2024/01/05 03:36:35;;;;;;;2.85;1.00;;;4.00;14.00;;;;;;5172681;28;20026;-31
2024/01/05 03:39:13;;;;;;;5.85;1.00;;;4.10;1.00;;;;;;5177632;28;20030;-32
2024/01/05 03:41:44;;;;;;;2.83;1.00;;;4.20;1.00;;;;;;5186895;28;20041;-30
2024/01/05 03:44:20;;;;;;;0.82;0.82;;;4.20;1.00;;;;;;5187721;28;20027;-30
2024/01/05 03:46:54;;;;;;;1.50;1.17;;;4.20;1.00;;;;;;5163881;28;20042;-30
2024/01/05 03:49:27;;;;;;;1.55;1.00;;;4.10;1.00;;;;;;5169051;28;20045;-32
2024/01/05 03:52:01;;;;;;;2.38;1.08;;;4.10;1.00;;;;;;4921056;28;7028064;-32
2024/01/05 03:54:38;;;;;;;1.48;1.10;;;4.10;1.00;;;;;;5167002;28;20372;-32
2024/01/05 03:57:14;;;;;;;2.05;1.27;;;4.00;1.00;;;;;;5167572;28;20038;-32
2024/01/05 03:59:50;;;;;;;3.05;0.95;;;4.00;1.00;;;;;;5168683;28;20030;-32
2024/01/05 04:02:28;;;;;;;4.50;1.20;;;3.90;99.90;;;;;;5165104;28;20038;-32
2024/01/05 04:05:02;;;;;;;1.98;1.02;;;4.00;99.90;;;;;;5170667;28;20524;-33
2024/01/05 04:07:36;;;;;;;1.40;1.23;;;3.90;99.90;;;;;;5168688;28;20030;-32
2024/01/05 04:10:10;;;;;;;1.95;0.60;;;3.90;99.90;;;;;;5168911;28;20032;-32
2024/01/05 04:12:41;;;;;;;3.83;0.98;;;3.80;99.90;;;;;;5165397;28;20034;-32
2024/01/05 04:15:12;;;;;;;3.80;1.00;;;3.80;99.90;;;;;;5148413;28;20045;-31
2024/01/05 04:17:43;;;;;;;2.15;0.80;;;3.70;1.00;;;;;;5129817;28;20043;-30
2024/01/05 04:20:17;;;;;;;1.23;0.80;;;3.60;1.00;;;;;;5149249;28;20299;-31
2024/01/05 04:22:51;;;;;;;3.13;0.95;;;3.60;1.00;;;;;;5141569;28;20081;-32
2024/01/05 04:25:30;;;;;;;0.93;0.93;;;3.60;1.00;;;;;;5167803;28;20029;-32
2024/01/05 04:28:03;;;;;;;4.35;1.20;;;3.60;99.90;;;;;;5168674;28;20040;-32
2024/01/05 04:30:35;;;;;;;1.40;1.13;;;3.60;99.90;;;;;;5163180;28;20030;-32
2024/01/05 04:33:08;;;;;;;1.42;0.88;;;3.70;1.00;;;;;;5148091;28;20050;-31
2024/01/05 04:35:39;;;;;;;0.75;0.65;;;3.70;99.90;;;;;;5151882;28;20034;-31
2024/01/05 04:38:16;;;;;;;1.02;0.80;;;3.70;99.90;;;;;;5166527;28;20069;-32
2024/01/05 04:40:55;;;;;;;5.65;1.83;;;3.70;1.00;;;;;;5168238;28;20030;-30
2024/01/05 04:43:28;;;;;;;2.75;1.27;;;3.80;1.00;;;;;;5135392;28;20225;-31
2024/01/05 04:46:00;;;;;;;4.63;1.35;;;3.70;1.00;;;;;;5165987;28;20034;-33
2024/01/05 04:48:33;;;;;;;3.88;1.30;;;3.70;1.00;;;;;;5168677;28;20040;-30
2024/01/05 04:51:04;;;;;;;1.35;1.20;;;3.70;1.00;;;;;;5169123;28;20034;-31
2024/01/05 04:53:38;;;;;;;1.33;1.23;;;3.70;1.00;;;;;;5185605;28;20467;-31
2024/01/05 04:56:11;;;;;;;2.43;1.27;;;3.80;1.00;;;;;;5175402;28;20052;-31
2024/01/05 04:58:45;;;;;;;1.20;0.97;;;3.90;1.00;;;;;;5168327;28;20256;-31
2024/01/05 05:01:19;;;;;;;4.13;1.23;;;4.00;1.00;;;;;;5164216;28;20038;-31
2024/01/05 05:03:50;;;;;;;3.72;1.00;;;4.20;1.00;;;;;;5165112;28;20030;-31
2024/01/05 05:06:22;;;;;;;2.58;1.33;;;4.10;1.00;;;;;;5167038;28;20519;-31
2024/01/05 05:08:58;;;;;;;2.13;1.40;;;4.10;1.00;;;;;;5166638;28;20408;-31
2024/01/05 05:11:29;;;;;;;2.10;1.70;;;4.20;1.00;;;;;;5168683;28;20053;-31
2024/01/05 05:14:00;;;;;;;2.80;1.65;;;4.20;1.00;;;;;;5168413;28;20022;-31
2024/01/05 05:16:37;;;;;;;3.50;1.80;;;4.10;99.90;;;;;;5146263;28;20041;-31
2024/01/05 05:19:08;;;;;;;2.70;1.25;;;4.10;99.90;;;;;;5167913;28;20049;-32
2024/01/05 05:21:44;;;;;;;2.35;1.08;;;4.00;99.90;;;;;;5169286;28;20321;-31
2024/01/05 05:24:16;;;;;;;1.90;1.13;;;4.00;1.00;;;;;;5187963;28;20041;-31
2024/01/05 05:26:47;;;;;;;3.38;1.17;;;4.00;1.00;;;;;;5170860;28;20029;-31
2024/01/05 05:29:23;;;;;;;3.67;1.08;;;4.10;1.00;;;;;;5183977;28;20045;-30
2024/01/05 05:31:59;;;;;;;0.82;0.70;;;4.10;1.00;;;;;;5129618;28;20061;-30
2024/01/05 05:34:38;;;;;;;1.20;1.10;;;4.20;1.00;;;;;;5167889;28;20034;-30
2024/01/05 05:37:09;;;;;;;2.75;1.00;;;4.40;99.90;;;;;;5156872;28;20037;-32
2024/01/05 05:39:41;;;;;;;2.58;1.20;;;4.50;99.90;;;;;;5168242;28;20034;-32
2024/01/05 05:42:12;;;;;;;1.98;1.20;;;4.50;1.00;;;;;;5167663;28;20030;-32
2024/01/05 05:44:46;;;;;;;2.85;1.30;;;4.60;1.00;;;;;;5170107;28;20349;-32
2024/01/05 05:47:17;;;;;;;3.25;1.10;;;4.60;1.00;;;;;;5148932;28;20042;-32
2024/01/05 05:49:48;;;;;;;1.13;0.95;;;4.50;1.00;;;;;;5170715;28;20149;-31
2024/01/05 05:52:22;;;;;;;9.38;1.27;;;4.50;1.00;;;;;;5170096;28;20073;-31
2024/01/05 05:54:56;;;;;;;2.92;1.02;;;4.60;1.00;;;;;;5167997;28;20034;-31
2024/01/05 05:57:27;;;;;;;4.25;2.38;;;4.60;1.00;;;;;;5170600;28;20034;-31
2024/01/05 06:00:02;;;;;;;6.13;2.80;;;4.60;1.00;;;;;;5169920;28;20042;-31
2024/01/05 06:02:37;;;;;;;8.13;3.17;;;4.50;1.00;;;;;;5149145;28;20026;-31
2024/01/05 06:05:09;;;;;;;4.78;1.77;;;4.50;1.00;;;;;;5169748;28;20036;-31
2024/01/05 06:07:43;;;;;;;3.22;1.58;;;4.50;1.00;;;;;;5159642;28;20030;-31
2024/01/05 06:10:14;;;;;;;4.22;1.38;;;4.60;1.00;;;;;;5170547;28;20026;-31
2024/01/05 06:12:48;;;;;;;4.57;1.40;;;4.50;1.00;;;;;;5190522;28;20052;-31
2024/01/05 06:15:31;;;;;;;2.97;1.58;;;4.50;1.00;;;;;;5176727;28;20026;-31
2024/01/05 06:18:03;;;;;;;3.97;2.00;;;4.40;1.00;;;;;;5153109;28;20030;-33
2024/01/05 06:20:38;;;;;;;1.60;1.27;;;4.30;1.00;;;;;;5170177;28;20262;-31
2024/01/05 06:23:11;;;;;;;2.92;1.58;;;4.20;99.90;;;;;;5153141;28;20042;-31
2024/01/05 06:25:43;;;;;;;2.30;1.17;;;4.20;30.10;;;;;;5174330;28;20316;-31
2024/01/05 06:28:16;;;;;;;3.10;1.30;;;4.10;88.30;;;;;;5168951;28;20030;-31
2024/01/05 06:30:48;;;;;;;4.85;1.20;;;3.90;81.30;;;;;;5165198;28;20218;-31
2024/01/05 06:33:25;;;;;;;2.45;1.25;;;3.80;99.90;;;;;;5151262;28;20072;-31
2024/01/05 06:35:59;;;;;;;2.85;1.52;;;3.70;99.90;;;;;;5169957;28;20363;-30
2024/01/05 06:38:30;;;;;;;3.03;1.45;;;3.70;99.90;;;;;;5157347;28;20030;-30
2024/01/05 06:41:03;;;;;;;6.72;2.13;;;3.60;99.90;;;;;;5150796;28;20040;-30
2024/01/05 06:43:39;;;;;;;3.13;1.75;;;3.60;1.00;;;;;;5173733;28;20350;-31
2024/01/05 06:46:11;;;;;;;5.57;1.70;;;3.50;1.00;;;;;;5165125;28;20042;-31
2024/01/05 06:48:42;;;;;;;3.83;1.63;;;3.50;1.00;;;;;;5156464;28;20072;-31
2024/01/05 06:51:16;;;;;;;3.22;1.55;;;3.50;1.00;;;;;;5176731;28;20379;-32
2024/01/05 06:53:53;;;;;;;2.67;1.17;;;3.60;1.00;;;;;;5189155;28;20032;-30
2024/01/05 06:56:31;;;;;;;1.63;1.25;;;3.60;1.00;;;;;;5165100;28;20034;-30
2024/01/05 06:59:05;;;;;;;7.20;2.08;;;3.60;1.00;;;;;;5168359;28;20041;-30
2024/01/05 07:01:36;;;;;;;6.35;3.00;;;3.60;1.00;;;;;;5147136;28;20022;-30
2024/01/05 07:04:10;;;;;;;3.97;2.20;;;3.60;1.00;;;;;;5151294;28;20041;-31
2024/01/05 07:06:41;;;;;;;3.20;2.10;;;3.60;19.70;;;;;;5167758;28;20354;-31
2024/01/05 07:09:13;;;;;;;5.13;2.83;;;3.60;99.90;;;;;;5133410;28;20268;-31
2024/01/05 07:11:47;;;;;;;3.75;2.83;;;3.60;99.90;;;;;;5131695;28;20037;-31
2024/01/05 07:14:21;;;;;;;4.47;2.80;;;3.50;84.00;;;;;;5167999;28;20040;-31
2024/01/05 07:16:54;;;;;;;3.35;2.42;;;3.40;99.90;;;;;;5146984;28;20252;-33
2024/01/05 07:19:25;;;;;;;4.20;2.13;;;3.40;99.90;;;;;;5168502;28;20045;-30
2024/01/05 07:21:59;;;;;;;5.13;2.85;;;3.50;1.00;;;;;;5172526;28;20317;-30
2024/01/05 07:24:30;;;;;;;6.75;3.42;;;3.60;1.00;;;;;;5188039;28;20233;-30
2024/01/05 07:27:01;;;;;;;5.45;2.42;;;3.80;1.00;;;;;;5169113;28;20085;-30
2024/01/05 07:29:33;;;;;;;6.63;3.10;;;4.00;99.90;;;;;;5150533;28;20429;-31
2024/01/05 07:32:09;;;;;;;5.38;3.25;;;4.20;1.00;;;;;;5143537;28;20038;-30
2024/01/05 07:34:43;;;;;;;6.15;3.28;;;4.40;1.00;;;;;;5168271;28;20038;-31
2024/01/05 07:37:18;;;;;;;6.95;3.22;;;4.60;99.90;;;;;;5167811;28;20029;-31
2024/01/05 07:39:49;;;;;;;8.70;3.20;;;4.80;1.00;;;;;;5168140;28;20098;-31
2024/01/05 07:42:20;;;;;;;4.15;2.30;;;5.00;1.00;;;;;;5167840;28;20030;-31
2024/01/05 07:44:52;;;;;;;4.75;2.55;;;5.10;99.90;;;;;;5163613;28;20034;-31
2024/01/05 07:47:23;;;;;;;6.30;2.30;;;5.30;99.90;;;;;;5137339;28;20295;-31
2024/01/05 07:49:55;;;;;;;4.88;2.88;;;5.50;99.90;;;;;;5150059;28;20038;-31
2024/01/05 07:52:29;;;;;;;3.85;2.75;;;5.70;1.00;;;;;;5175101;28;20054;-31
2024/01/05 07:55:02;;;;;;;4.88;3.00;;;5.90;1.00;;;;;;5188299;28;20044;-31
2024/01/05 07:57:33;;;;;;;7.50;2.83;;;6.10;1.00;;;;;;5188309;28;20036;-31
2024/01/05 08:00:11;;;;;;;5.63;2.88;;;6.30;99.90;;;;;;5185376;28;20032;-31
2024/01/05 08:02:42;;;;;;;11.25;3.05;;;6.50;99.90;;;;;;5163341;28;20340;-31
2024/01/05 08:05:16;;;;;;;4.65;2.60;;;6.80;99.90;;;;;;5182643;28;20038;-31
2024/01/05 08:07:48;;;;;;;7.40;2.42;;;7.00;99.90;;;;;;5172699;28;20038;-31
2024/01/05 08:10:20;;;;;;;6.82;4.25;;;7.20;99.90;;;;;;5182256;28;20202;-31
2024/01/05 08:12:57;;;;;;;9.82;6.50;;;7.30;99.90;;;;;;5165271;28;20036;-31
2024/01/05 08:15:28;;;;;;;4.22;3.28;;;7.40;40.00;;;;;;5184783;28;20384;-36
2024/01/05 08:18:00;;;;;;;2.28;1.95;;;7.50;1.00;;;;;;5194050;28;20026;-32
2024/01/05 08:20:33;;;;;;;2.58;1.98;;;7.50;1.00;;;;;;5184699;28;20278;-31
2024/01/05 08:23:07;;;;;;;3.10;1.90;;;7.60;1.00;;;;;;5181437;28;20038;-30
2024/01/05 08:25:40;;;;;;;5.77;2.20;;;7.80;1.00;;;;;;5188236;28;20034;-32
2024/01/05 08:28:12;;;;;;;3.67;2.25;;;8.20;1.00;;;;;;5193147;28;20771;-30
2024/01/05 08:30:46;;;;;;;4.53;2.95;;;8.30;1.00;;;;;;5191697;28;20034;-30
2024/01/05 08:33:19;;;;;;;6.53;1.83;;;8.30;1.00;;;;;;5191076;28;20367;-30
2024/01/05 08:35:51;;;;;;;2.78;2.08;;;8.40;1.00;;;;;;5138604;28;20219;-29
2024/01/05 08:38:24;;;;;;;4.72;1.88;;;8.20;1.00;;;;;;5163638;28;20036;-31
2024/01/05 08:40:58;;;;;;;3.67;2.38;;;8.20;1.00;;;;;;5183208;28;20042;-32
2024/01/05 08:43:30;;;;;;;4.37;1.97;;;8.40;1.00;;;;;;5183060;28;20037;-30
2024/01/05 08:46:08;;;;;;;3.70;2.25;;;8.50;1.00;;;;;;5181684;28;20277;-30
2024/01/05 08:48:45;;;;;;;3.47;2.08;;;8.60;1.00;;;;;;5168769;28;20049;-31
2024/01/05 08:51:17;;;;;;;4.43;2.67;;;8.90;1.00;;;;;;5165431;28;20088;-32
2024/01/05 08:53:51;;;;;;;3.92;2.78;;;9.30;1.00;;;;;;5179141;28;20346;-30
2024/01/05 08:56:24;;;;;;;5.35;3.22;;;9.60;1.00;;;;;;5160760;28;20364;-31
2024/01/05 08:58:55;;;;;;;7.78;3.55;;;9.50;1.00;;;;;;5165728;28;20038;-30
2024/01/05 09:01:32;;;;;;;2.75;2.00;;;9.70;1.00;;;;;;5145638;28;20222;-30
2024/01/05 09:04:05;;;;;;;2.20;1.65;;;9.70;99.90;;;;;;5145509;28;20046;-30
2024/01/05 09:06:40;;;;;;;4.32;3.17;;;9.50;99.90;;;;;;5146171;28;20064;-32
2024/01/05 09:09:13;;;;;;;5.95;2.83;;;9.20;99.90;;;;;;5165797;28;20030;-32
2024/01/05 09:11:47;;;;;;;5.70;3.25;;;9.20;1.00;;;;;;5166382;28;20034;-32
2024/01/05 09:14:21;;;;;;;4.80;2.90;;;9.20;1.00;;;;;;5166380;28;20034;-32
2024/01/05 09:16:54;;;;;;;5.70;3.10;;;9.30;1.00;;;;;;5116884;28;20031;-31
2024/01/05 09:19:28;;;;;;;5.82;2.55;;;9.30;1.00;;;;;;5165895;28;20221;-32
2024/01/05 09:22:02;;;;;;;3.90;2.25;;;9.20;1.00;;;;;;5169994;28;20034;-30
2024/01/05 09:24:36;;;;;;;4.85;2.25;;;9.10;99.90;;;;;;5170217;28;20036;-32
2024/01/05 09:27:13;;;;;;;;;;;9.00;99.90;;;;;;5152113;28;20038;-32
2024/01/05 09:29:47;;;;;;;4.60;2.88;;;9.00;99.90;;;;;;5169673;28;19909;-32
2024/01/05 09:32:18;;;;;;;4.50;2.80;;;9.10;99.90;;;;;;5166996;28;20045;-32
2024/01/05 09:34:49;;;;;;;3.47;2.50;;;9.20;99.90;;;;;;5169886;28;20041;-32
2024/01/05 09:37:20;;;;;;;4.03;2.83;;;9.10;99.90;;;;;;5149428;28;20039;-32
2024/01/05 09:39:52;;;;;;;3.53;2.58;;;8.90;99.90;;;;;;5170226;28;20223;-31
2024/01/05 09:42:26;;;;;;;4.10;2.70;;;8.90;99.90;;;;;;5169117;28;20034;-31
2024/01/05 09:45:02;;;;;;;3.63;2.42;;;9.00;99.90;;;;;;5169701;28;20065;-31
2024/01/05 09:47:34;;;;;;;6.15;2.50;;;8.80;99.90;;;;;;5161113;28;20048;-35
2024/01/05 09:50:06;;;;;;;3.47;3.00;;;8.90;99.90;;;;;;5152390;28;20076;-31
2024/01/05 09:52:40;;;;;;;4.10;2.42;;;9.10;99.90;;;;;;5146654;28;20042;-31
2024/01/05 09:55:12;;;;;;;2.75;2.20;;;9.20;99.90;;;;;;5171873;28;20041;-31
2024/01/05 09:57:51;;;;;;;2.67;2.13;;;9.30;99.90;;;;;;5165581;28;20236;-30
2024/01/05 10:00:27;;;;;;;3.30;2.17;;;9.30;99.90;;;;;;5165917;28;20022;-30
2024/01/05 10:03:05;;;;;;;2.42;2.00;;;9.20;99.90;;;;;;5169619;28;20069;-30
2024/01/05 10:05:39;;;;;;;4.10;2.58;;;9.10;99.90;;;;;;5164257;28;20034;-32
2024/01/05 10:08:14;;;;;;;3.13;2.10;;;9.10;99.90;;;;;;5143108;28;20048;-30
2024/01/05 10:10:58;;;;;;;3.40;2.60;;;9.20;1.00;;;;;;5160575;28;20038;-29
2024/01/05 10:13:36;;;;;;;3.22;2.20;;;9.20;1.00;;;;;;5168110;28;20042;-32
2024/01/05 10:16:08;;;;;;;4.50;2.50;;;9.40;1.00;;;;;;5157615;28;20031;-29
2024/01/05 10:18:42;;;;;;;4.45;3.05;;;9.40;1.00;;;;;;5140247;28;20034;-29
2024/01/05 10:21:13;;;;;;;3.25;2.60;;;9.60;1.00;;;;;;5138511;28;20230;-33
2024/01/05 10:23:47;;;;;;;3.95;2.38;;;9.80;1.00;;;;;;5167638;28;20038;-32
2024/01/05 10:26:18;;;;;;;4.03;2.70;;;9.90;1.00;;;;;;5155894;28;20034;-30
2024/01/05 10:28:52;;;;;;;6.38;2.83;;;10.00;1.00;;;;;;5147368;28;20038;-30
2024/01/05 10:31:23;;;;;;;3.88;2.60;;;10.30;1.00;;;;;;5160985;28;20041;-32
2024/01/05 10:33:56;;;;;;;4.30;2.72;;;10.30;1.00;;;;;;5146736;28;20041;-32
2024/01/05 10:36:28;;;;;;;5.45;2.92;;;10.30;1.00;;;;;;5164536;28;20038;-31
2024/01/05 10:38:59;;;;;;;3.63;2.67;;;10.20;1.00;;;;;;5155354;28;20035;-31
2024/01/05 10:41:31;;;;;;;3.97;2.70;;;10.60;1.00;;;;;;5165623;28;20033;-31
2024/01/05 10:44:05;;;;;;;6.78;2.92;;;10.90;1.00;;;;;;5168202;28;20048;-31
2024/01/05 10:46:38;;;;;;;5.68;2.97;;;11.20;1.00;;;;;;5161892;28;20034;-32
2024/01/05 10:49:12;;;;;;;5.18;2.80;;;11.50;1.00;;;;;;5131547;28;20048;-31
2024/01/05 10:51:44;;;;;;;5.07;3.85;;;11.40;99.90;;;;;;5167498;28;20044;-31
2024/01/05 10:54:15;;;;;;;6.07;3.28;;;10.70;99.90;;;;;;5181136;28;20253;-32
2024/01/05 10:56:53;;;;;;;7.25;3.40;;;10.10;1.00;;;;;;5129920;28;20037;-31
2024/01/05 10:59:25;;;;;;;4.57;2.85;;;9.60;99.90;;;;;;5160448;28;20045;-31
2024/01/05 11:01:59;;;;;;;5.75;3.78;;;9.50;99.90;;;;;;5161961;28;20238;-31
2024/01/05 11:04:33;;;;;;;;;;;9.90;1.00;;;;;;5168424;28;20052;-32
2024/01/05 11:07:04;;;;;;;5.30;3.55;;;10.30;1.00;;;;;;5176411;28;19916;-30
2024/01/05 11:09:53;;;;;;;6.32;3.60;;;10.70;1.00;;;;;;5170330;28;20045;-33
2024/01/05 11:12:48;;;;;;;6.10;3.67;;;11.20;1.00;;;;;;5175113;28;20045;-30
2024/01/05 11:15:59;;;;;;;5.60;4.67;;;11.50;1.00;;;;;;5163338;28;20030;-31
2024/01/05 11:18:55;;;;;;;6.47;4.40;;;11.20;1.00;;;;;;5162114;28;20264;-31
2024/01/05 11:21:37;;;;;;;6.85;4.60;;;11.00;1.00;;;;;;5140188;28;20364;-31
2024/01/05 11:24:09;;;;;;;10.63;5.38;;;10.90;1.00;;;;;;5167338;28;20319;-32
2024/01/05 11:26:43;;;;;;;10.00;5.13;;;10.80;1.00;;;;;;5170419;28;20026;-32
2024/01/05 11:29:48;;;;;;;7.07;4.18;;;11.00;1.00;;;;;;5169442;28;20041;-32
2024/01/05 11:32:47;;;;;;;5.40;3.95;;;11.20;1.00;;;;;;5164086;28;20218;-32
2024/01/05 11:35:19;;;;;;;5.65;3.80;;;11.00;1.00;;;;;;5167653;28;20053;-30
2024/01/05 11:37:51;;;;;;;5.05;3.33;;;11.20;1.00;;;;;;5164996;28;20507;-32
2024/01/05 11:40:25;;;;;;;7.68;4.40;;;10.80;1.00;;;;;;5147728;28;20343;-31
2024/01/05 11:42:59;;;;;;;7.35;4.32;;;10.70;1.00;;;;;;5166965;28;20027;-31
2024/01/05 11:45:52;;;;;;;10.00;3.85;;;11.10;1.00;;;;;;5163323;28;20045;-32
2024/01/05 11:48:47;;;;;;;10.60;5.45;;;11.50;1.00;;;;;;5149532;28;20049;-31
2024/01/05 11:51:18;;;;;;;7.40;4.60;;;11.20;1.00;;;;;;5146562;28;20022;-32
2024/01/05 11:53:55;;;;;;;9.55;5.45;;;10.70;1.00;;;;;;5141287;28;20060;-32
2024/01/05 11:56:27;;;;;;;8.07;5.22;;;11.20;1.00;;;;;;5143210;28;20031;-31
2024/01/05 11:58:58;;;;;;;10.70;5.60;;;12.60;1.00;;;;;;5170363;28;20319;-32
2024/01/05 12:01:29;;;;;;;9.15;5.03;;;13.50;1.00;;;;;;5143358;28;20026;-32
2024/01/05 12:04:03;;;;;;;7.63;5.07;;;13.70;1.00;;;;;;5163762;28;20049;-31
2024/01/05 12:06:34;;;;;;;11.30;5.75;;;13.30;1.00;;;;;;5127153;28;20034;-31
2024/01/05 12:09:08;;;;;;;10.98;5.68;;;12.30;1.00;;;;;;5164979;28;20334;-32
2024/01/05 12:11:39;;;;;;;8.57;5.53;;;12.30;1.00;;;;;;5132904;28;20038;-31
2024/01/05 12:14:14;;;;;;;9.15;5.70;;;12.60;1.00;;;;;;5144663;28;20031;-31
2024/01/05 12:16:47;;;;;;;;;;;11.70;1.00;;;;;;5153406;28;20045;-31
2024/01/05 12:19:23;;;;;;;11.68;6.10;;;10.60;1.00;;;;;;5161472;28;19913;-31
2024/01/05 12:21:54;;;;;;;10.13;6.00;;;9.60;1.00;;;;;;5145311;28;20064;-31
2024/01/05 12:24:25;;;;;;;8.68;4.65;;;9.00;1.00;;;;;;5155931;28;20030;-33
2024/01/05 12:26:56;;;;;;;8.25;5.63;;;8.70;1.00;;;;;;5161811;28;20349;-34
2024/01/05 12:29:29;;;;;;;9.80;5.75;;;8.80;1.00;;;;;;5151078;28;20637;-31
2024/01/05 12:32:00;;;;;;;10.85;6.25;;;8.70;1.00;;;;;;5140007;28;20072;-31
2024/01/05 12:34:31;;;;;;;11.15;5.97;;;8.80;1.00;;;;;;5162859;28;20027;-31
2024/01/05 12:37:07;;;;;;;9.25;5.03;;;9.00;1.00;;;;;;5132098;28;20230;-31
2024/01/05 12:39:38;;;;;;;11.48;5.35;;;9.70;1.00;;;;;;5163503;28;20036;-31
2024/01/05 12:42:09;;;;;;;8.15;5.63;;;10.00;1.00;;;;;;5164222;28;20210;-31
2024/01/05 12:44:42;;;;;;;11.35;6.57;;;10.30;1.00;;;;;;5165594;28;20044;-30
2024/01/05 12:47:27;;;;;;;10.75;5.72;;;11.10;1.00;;;;;;5141945;28;20216;-30
2024/01/05 12:50:02;;;;;;;11.63;6.75;;;11.30;1.00;;;;;;5155897;28;20040;-30
2024/01/05 12:52:35;;;;;;;7.13;5.50;;;11.30;1.00;;;;;;5178737;28;20044;-32
2024/01/05 12:55:07;;;;;;;10.30;6.30;;;11.30;1.00;;;;;;5191140;28;20022;-32
2024/01/05 12:57:38;;;;;;;9.05;6.03;;;11.70;1.00;;;;;;5188630;28;20045;-32
2024/01/05 13:00:11;;;;;;;11.15;5.90;;;11.90;1.00;;;;;;5188863;28;20217;-32
2024/01/05 13:02:42;;;;;;;10.25;6.13;;;11.70;1.00;;;;;;5171135;28;20048;-32
2024/01/05 13:05:35;;;;;;;9.75;6.13;;;11.10;1.00;;;;;;5177539;28;20071;-32
2024/01/05 13:08:06;;;;;;;9.25;6.22;;;10.50;1.00;;;;;;5184043;28;20030;-32
2024/01/05 13:10:40;;;;;;;11.73;7.07;;;10.30;1.00;;;;;;5168408;28;20329;-31
2024/01/05 13:13:12;;;;;;;10.57;6.53;;;10.80;1.00;;;;;;5142154;28;20060;-31
2024/01/05 13:15:43;;;;;;;11.32;6.78;;;11.20;1.00;;;;;;5179448;28;20025;-30
2024/01/05 13:18:14;;;;;;;10.35;6.78;;;11.20;1.00;;;;;;5157654;28;20249;-32
2024/01/05 13:20:46;;;;;;;9.85;5.85;;;10.90;1.00;;;;;;5186152;28;20261;-32
2024/01/05 13:23:23;;;;;;;10.43;6.70;;;10.60;1.00;;;;;;5189381;28;20033;-32
2024/01/05 13:25:56;;;;;;;8.85;6.22;;;10.30;1.00;;;;;;5171643;28;20030;-31
2024/01/05 13:28:28;;;;;;;11.73;6.30;;;10.70;1.00;;;;;;5188215;28;20029;-31
2024/01/05 13:31:00;;;;;;;10.35;6.38;;;11.20;1.00;;;;;;5163801;28;20041;-31
2024/01/05 13:33:34;;;;;;;9.68;6.50;;;11.10;1.00;;;;;;5151992;28;20056;-30
2024/01/05 13:36:08;;;;;;;9.82;6.72;;;10.60;1.00;;;;;;5189627;28;20013;-31
2024/01/05 13:38:42;;;;;;;10.67;6.57;;;10.20;1.00;;;;;;5183625;28;20040;-31